sensor_id;sensor_type;location;lat;lon;timestamp;P1;P2;P0
28647;PMS5003;17137;51.494;-0.262;2023-09-19T00:00:28;22;20;
28647;PMS5003;17137;51.494;-0.262;2023-09-19T00:00:59;22;20;
28647;PMS5003;17137;51.494;-0.262;2023-09-19T00:01:29;22;20;
28647;PMS5003;17137;51.494;-0.262;2023-09-19T00:01:59;22;20;
28647;PMS5003;17137;51.494;-0.262;2023-09-19T00:02:29;22;20;
28647;PMS5003;17137;51.494;-0.262;2023-09-19T00:03:00;23;19;
28647;PMS5003;17137;51.494;-0.262;2023-09-19T00:03:30;20;19;
28647;PMS5003;17137;51.494;-0.262;2023-09-19T00:04:01;20;19;
28647;PMS5003;17137;51.494;-0.262;2023-09-19T00:04:31;20;19;
28647;PMS5003;17137;51.494;-0.262;2023-09-19T00:05:01;19;17;
28647;PMS5003;17137;51.494;-0.262;2023-09-19T00:05:33;19;17;
28647;PMS5003;17137;51.494;-0.262;2023-09-19T00:06:05;19;17;
28647;PMS5003;17137;51.494;-0.262;2023-09-19T00:06:36;19;17;
28647;PMS5003;17137;51.494;-0.262;2023-09-19T00:07:06;20;18;
28647;PMS5003;17137;51.494;-0.262;2023-09-19T00:07:36;20;18;
28647;PMS5003;17137;51.494;-0.262;2023-09-19T00:08:07;20;17;
28647;PMS5003;17137;51.494;-0.262;2023-09-19T00:08:37;20;17;
28647;PMS5003;17137;51.494;-0.262;2023-09-19T00:09:07;20;17;
28647;PMS5003;17137;51.494;-0.262;2023-09-19T00:09:37;19;15;
28647;PMS5003;17137;51.494;-0.262;2023-09-19T00:10:08;19;15;
28647;PMS5003;17137;51.494;-0.262;2023-09-19T00:10:38;19;15;
28647;PMS5003;17137;51.494;-0.262;2023-09-19T00:11:09;26;23;
28647;PMS5003;17137;51.494;-0.262;2023-09-19T00:11:39;25;22;
28647;PMS5003;17137;51.494;-0.262;2023-09-19T00:12:10;24;21;
28647;PMS5003;17137;51.494;-0.262;2023-09-19T00:12:42;23;21;
28647;PMS5003;17137;51.494;-0.262;2023-09-19T00:13:13;22;20;
28647;PMS5003;17137;51.494;-0.262;2023-09-19T00:13:43;22;21;
28647;PMS5003;17137;51.494;-0.262;2023-09-19T00:14:13;21;20;
28647;PMS5003;17137;51.494;-0.262;2023-09-19T00:14:43;23;23;
28647;PMS5003;17137;51.494;-0.262;2023-09-19T00:15:13;24;24;
28647;PMS5003;17137;51.494;-0.262;2023-09-19T00:15:44;24;24;
28647;PMS5003;17137;51.494;-0.262;2023-09-19T00:16:16;24;24;
28647;PMS5003;17137;51.494;-0.262;2023-09-19T00:16:46;24;24;
28647;PMS5003;17137;51.494;-0.262;2023-09-19T00:17:16;25;25;
28647;PMS5003;17137;51.494;-0.262;2023-09-19T00:17:47;25;25;
28647;PMS5003;17137;51.494;-0.262;2023-09-19T00:18:17;25;25;
28647;PMS5003;17137;51.494;-0.262;2023-09-19T00:18:48;24;24;
28647;PMS5003;17137;51.494;-0.262;2023-09-19T00:19:18;25;19;
28647;PMS5003;17137;51.494;-0.262;2023-09-19T00:19:48;25;20;
28647;PMS5003;17137;51.494;-0.262;2023-09-19T00:20:19;25;20;
28647;PMS5003;17137;51.494;-0.262;2023-09-19T00:20:49;25;20;
28647;PMS5003;17137;51.494;-0.262;2023-09-19T00:21:19;25;20;
28647;PMS5003;17137;51.494;-0.262;2023-09-19T00:21:50;25;20;
28647;PMS5003;17137;51.494;-0.262;2023-09-19T00:22:20;25;20;
28647;PMS5003;17137;51.494;-0.262;2023-09-19T00:22:50;25;20;
28647;PMS5003;17137;51.494;-0.262;2023-09-19T00:23:21;25;20;
28647;PMS5003;17137;51.494;-0.262;2023-09-19T00:23:51;25;20;
28647;PMS5003;17137;51.494;-0.262;2023-09-19T00:24:21;27;21;
28647;PMS5003;17137;51.494;-0.262;2023-09-19T00:24:52;27;21;
28647;PMS5003;17137;51.494;-0.262;2023-09-19T00:25:22;27;21;
28647;PMS5003;17137;51.494;-0.262;2023-09-19T00:25:52;26;22;
28647;PMS5003;17137;51.494;-0.262;2023-09-19T00:26:22;26;22;
28647;PMS5003;17137;51.494;-0.262;2023-09-19T00:26:52;26;22;
28647;PMS5003;17137;51.494;-0.262;2023-09-19T00:27:23;23;20;
28647;PMS5003;17137;51.494;-0.262;2023-09-19T00:27:54;23;20;
28647;PMS5003;17137;51.494;-0.262;2023-09-19T00:28:24;23;20;
28647;PMS5003;17137;51.494;-0.262;2023-09-19T00:28:54;23;20;
28647;PMS5003;17137;51.494;-0.262;2023-09-19T00:29:25;23;20;
28647;PMS5003;17137;51.494;-0.262;2023-09-19T00:29:56;23;20;
28647;PMS5003;17137;51.494;-0.262;2023-09-19T00:30:26;23;20;
28647;PMS5003;17137;51.494;-0.262;2023-09-19T00:30:56;23;20;
28647;PMS5003;17137;51.494;-0.262;2023-09-19T00:31:27;23;20;
28647;PMS5003;17137;51.494;-0.262;2023-09-19T00:31:57;22;19;
28647;PMS5003;17137;51.494;-0.262;2023-09-19T00:32:27;22;19;
28647;PMS5003;17137;51.494;-0.262;2023-09-19T00:32:57;22;19;
28647;PMS5003;17137;51.494;-0.262;2023-09-19T00:33:28;22;19;
28647;PMS5003;17137;51.494;-0.262;2023-09-19T00:33:58;22;19;
28647;PMS5003;17137;51.494;-0.262;2023-09-19T00:34:28;22;19;
28647;PMS5003;17137;51.494;-0.262;2023-09-19T00:35:00;24;20;
28647;PMS5003;17137;51.494;-0.262;2023-09-19T00:35:31;23;23;
28647;PMS5003;17137;51.494;-0.262;2023-09-19T00:36:01;23;23;
28647;PMS5003;17137;51.494;-0.262;2023-09-19T00:36:32;23;22;
28647;PMS5003;17137;51.494;-0.262;2023-09-19T00:37:02;23;22;
28647;PMS5003;17137;51.494;-0.262;2023-09-19T00:37:32;23;22;
28647;PMS5003;17137;51.494;-0.262;2023-09-19T00:38:03;23;22;
28647;PMS5003;17137;51.494;-0.262;2023-09-19T00:38:33;23;22;
28647;PMS5003;17137;51.494;-0.262;2023-09-19T00:39:03;23;22;
28647;PMS5003;17137;51.494;-0.262;2023-09-19T00:39:33;21;21;
28647;PMS5003;17137;51.494;-0.262;2023-09-19T00:40:04;21;21;
28647;PMS5003;17137;51.494;-0.262;2023-09-19T00:40:35;21;21;
28647;PMS5003;17137;51.494;-0.262;2023-09-19T00:41:06;22;22;
28647;PMS5003;17137;51.494;-0.262;2023-09-19T00:41:36;22;22;
28647;PMS5003;17137;51.494;-0.262;2023-09-19T00:42:06;22;22;
28647;PMS5003;17137;51.494;-0.262;2023-09-19T00:42:36;22;22;
28647;PMS5003;17137;51.494;-0.262;2023-09-19T00:43:07;21;21;
28647;PMS5003;17137;51.494;-0.262;2023-09-19T00:43:37;25;24;
28647;PMS5003;17137;51.494;-0.262;2023-09-19T00:44:08;23;23;
28647;PMS5003;17137;51.494;-0.262;2023-09-19T00:44:38;23;23;
28647;PMS5003;17137;51.494;-0.262;2023-09-19T00:45:09;23;23;
28647;PMS5003;17137;51.494;-0.262;2023-09-19T00:45:42;23;22;
28647;PMS5003;17137;51.494;-0.262;2023-09-19T00:46:16;23;22;
28647;PMS5003;17137;51.494;-0.262;2023-09-19T00:46:47;23;22;
28647;PMS5003;17137;51.494;-0.262;2023-09-19T00:47:17;22;22;
28647;PMS5003;17137;51.494;-0.262;2023-09-19T00:47:48;22;22;
28647;PMS5003;17137;51.494;-0.262;2023-09-19T00:48:20;22;22;
28647;PMS5003;17137;51.494;-0.262;2023-09-19T00:48:52;22;21;
28647;PMS5003;17137;51.494;-0.262;2023-09-19T00:49:22;22;21;
28647;PMS5003;17137;51.494;-0.262;2023-09-19T00:49:52;22;21;
28647;PMS5003;17137;51.494;-0.262;2023-09-19T00:50:24;22;21;
28647;PMS5003;17137;51.494;-0.262;2023-09-19T00:50:56;22;21;
28647;PMS5003;17137;51.494;-0.262;2023-09-19T00:51:31;22;21;
28647;PMS5003;17137;51.494;-0.262;2023-09-19T00:52:02;24;24;
28647;PMS5003;17137;51.494;-0.262;2023-09-19T00:52:33;24;24;
28647;PMS5003;17137;51.494;-0.262;2023-09-19T00:53:03;24;24;
28647;PMS5003;17137;51.494;-0.262;2023-09-19T00:53:34;24;24;
28647;PMS5003;17137;51.494;-0.262;2023-09-19T00:54:04;24;24;
28647;PMS5003;17137;51.494;-0.262;2023-09-19T00:54:35;25;24;
28647;PMS5003;17137;51.494;-0.262;2023-09-19T00:55:06;25;24;
28647;PMS5003;17137;51.494;-0.262;2023-09-19T00:55:37;25;24;
28647;PMS5003;17137;51.494;-0.262;2023-09-19T00:56:07;24;23;
28647;PMS5003;17137;51.494;-0.262;2023-09-19T00:56:38;24;23;
28647;PMS5003;17137;51.494;-0.262;2023-09-19T00:57:08;24;23;
28647;PMS5003;17137;51.494;-0.262;2023-09-19T00:57:39;23;22;
28647;PMS5003;17137;51.494;-0.262;2023-09-19T00:58:10;23;22;
28647;PMS5003;17137;51.494;-0.262;2023-09-19T00:58:40;23;22;
28647;PMS5003;17137;51.494;-0.262;2023-09-19T00:59:10;21;20;
28647;PMS5003;17137;51.494;-0.262;2023-09-19T00:59:41;21;20;
28647;PMS5003;17137;51.494;-0.262;2023-09-19T01:00:12;23;22;
28647;PMS5003;17137;51.494;-0.262;2023-09-19T01:00:42;23;22;
28647;PMS5003;17137;51.494;-0.262;2023-09-19T01:01:13;23;22;
28647;PMS5003;17137;51.494;-0.262;2023-09-19T01:01:44;23;22;
28647;PMS5003;17137;51.494;-0.262;2023-09-19T01:02:15;23;22;
28647;PMS5003;17137;51.494;-0.262;2023-09-19T01:02:46;23;22;
28647;PMS5003;17137;51.494;-0.262;2023-09-19T01:03:17;22;21;
28647;PMS5003;17137;51.494;-0.262;2023-09-19T01:03:48;22;21;
28647;PMS5003;17137;51.494;-0.262;2023-09-19T01:04:19;22;21;
28647;PMS5003;17137;51.494;-0.262;2023-09-19T01:04:49;21;20;
28647;PMS5003;17137;51.494;-0.262;2023-09-19T01:05:20;22;21;
28647;PMS5003;17137;51.494;-0.262;2023-09-19T01:05:51;22;21;
28647;PMS5003;17137;51.494;-0.262;2023-09-19T01:06:21;24;23;
28647;PMS5003;17137;51.494;-0.262;2023-09-19T01:06:51;24;23;
28647;PMS5003;17137;51.494;-0.262;2023-09-19T01:07:21;24;23;
28647;PMS5003;17137;51.494;-0.262;2023-09-19T01:07:52;24;23;
28647;PMS5003;17137;51.494;-0.262;2023-09-19T01:08:22;31;29;
28647;PMS5003;17137;51.494;-0.262;2023-09-19T01:08:53;32;29;
28647;PMS5003;17137;51.494;-0.262;2023-09-19T01:09:23;31;28;
28647;PMS5003;17137;51.494;-0.262;2023-09-19T01:09:53;29;26;
28647;PMS5003;17137;51.494;-0.262;2023-09-19T01:10:24;30;27;
28647;PMS5003;17137;51.494;-0.262;2023-09-19T01:10:57;30;28;
28647;PMS5003;17137;51.494;-0.262;2023-09-19T01:11:34;32;29;
28647;PMS5003;17137;51.494;-0.262;2023-09-19T01:12:10;34;31;
28647;PMS5003;17137;51.494;-0.262;2023-09-19T01:12:48;33;31;
28647;PMS5003;17137;51.494;-0.262;2023-09-19T01:13:27;33;31;
28647;PMS5003;17137;51.494;-0.262;2023-09-19T01:14:07;33;30;
28647;PMS5003;17137;51.494;-0.262;2023-09-19T01:14:49;33;31;
28647;PMS5003;17137;51.494;-0.262;2023-09-19T01:15:28;33;31;
28647;PMS5003;17137;51.494;-0.262;2023-09-19T01:16:09;33;31;
28647;PMS5003;17137;51.494;-0.262;2023-09-19T01:16:50;33;30;
28647;PMS5003;17137;51.494;-0.262;2023-09-19T01:18:02;27;24;
28647;PMS5003;17137;51.494;-0.262;2023-09-19T01:18:43;27;24;
28647;PMS5003;17137;51.494;-0.262;2023-09-19T01:19:26;27;24;
28647;PMS5003;17137;51.494;-0.262;2023-09-19T01:20:41;27;24;
28647;PMS5003;17137;51.494;-0.262;2023-09-19T01:21:23;27;24;
28647;PMS5003;17137;51.494;-0.262;2023-09-19T01:22:00;27;24;
28647;PMS5003;17137;51.494;-0.262;2023-09-19T01:22:43;27;24;
28647;PMS5003;17137;51.494;-0.262;2023-09-19T01:23:24;27;24;
28647;PMS5003;17137;51.494;-0.262;2023-09-19T01:24:13;27;24;
28647;PMS5003;17137;51.494;-0.262;2023-09-19T01:25:07;28;24;
28647;PMS5003;17137;51.494;-0.262;2023-09-19T01:26:07;28;24;
28647;PMS5003;17137;51.494;-0.262;2023-09-19T01:27:00;28;24;
28647;PMS5003;17137;51.494;-0.262;2023-09-19T01:27:53;27;22;
28647;PMS5003;17137;51.494;-0.262;2023-09-19T01:28:42;27;22;
28647;PMS5003;17137;51.494;-0.262;2023-09-19T01:29:24;27;22;
28647;PMS5003;17137;51.494;-0.262;2023-09-19T01:30:08;31;31;
28647;PMS5003;17137;51.494;-0.262;2023-09-19T01:30:40;31;31;
28647;PMS5003;17137;51.494;-0.262;2023-09-19T01:31:13;31;31;
28647;PMS5003;17137;51.494;-0.262;2023-09-19T01:31:44;32;32;
28647;PMS5003;17137;51.494;-0.262;2023-09-19T01:32:16;32;32;
28647;PMS5003;17137;51.494;-0.262;2023-09-19T01:32:47;32;32;
28647;PMS5003;17137;51.494;-0.262;2023-09-19T01:33:20;31;31;
28647;PMS5003;17137;51.494;-0.262;2023-09-19T01:33:54;31;31;
28647;PMS5003;17137;51.494;-0.262;2023-09-19T01:34:27;31;31;
28647;PMS5003;17137;51.494;-0.262;2023-09-19T01:34:57;30;30;
28647;PMS5003;17137;51.494;-0.262;2023-09-19T01:35:27;30;30;
28647;PMS5003;17137;51.494;-0.262;2023-09-19T01:35:57;30;30;
28647;PMS5003;17137;51.494;-0.262;2023-09-19T01:36:28;28;28;
28647;PMS5003;17137;51.494;-0.262;2023-09-19T01:37:00;28;28;
28647;PMS5003;17137;51.494;-0.262;2023-09-19T01:37:30;28;28;
28647;PMS5003;17137;51.494;-0.262;2023-09-19T01:38:01;28;28;
28647;PMS5003;17137;51.494;-0.262;2023-09-19T01:38:31;35;32;
28647;PMS5003;17137;51.494;-0.262;2023-09-19T01:39:02;35;31;
28647;PMS5003;17137;51.494;-0.262;2023-09-19T01:39:34;34;31;
28647;PMS5003;17137;51.494;-0.262;2023-09-19T01:40:06;36;33;
28647;PMS5003;17137;51.494;-0.262;2023-09-19T01:40:40;36;34;
28647;PMS5003;17137;51.494;-0.262;2023-09-19T01:41:12;36;34;
28647;PMS5003;17137;51.494;-0.262;2023-09-19T01:41:50;37;35;
28647;PMS5003;17137;51.494;-0.262;2023-09-19T01:42:29;36;34;
28647;PMS5003;17137;51.494;-0.262;2023-09-19T01:43:08;33;33;
28647;PMS5003;17137;51.494;-0.262;2023-09-19T01:43:46;36;34;
28647;PMS5003;17137;51.494;-0.262;2023-09-19T01:44:21;36;33;
28647;PMS5003;17137;51.494;-0.262;2023-09-19T01:45:01;38;33;
28647;PMS5003;17137;51.494;-0.262;2023-09-19T01:45:42;38;33;
28647;PMS5003;17137;51.494;-0.262;2023-09-19T01:46:21;38;33;
28647;PMS5003;17137;51.494;-0.262;2023-09-19T01:47:00;38;33;
28647;PMS5003;17137;51.494;-0.262;2023-09-19T01:47:41;38;33;
28647;PMS5003;17137;51.494;-0.262;2023-09-19T01:48:19;30;27;
28647;PMS5003;17137;51.494;-0.262;2023-09-19T01:48:59;30;27;
28647;PMS5003;17137;51.494;-0.262;2023-09-19T01:49:42;28;27;
28647;PMS5003;17137;51.494;-0.262;2023-09-19T01:50:21;28;27;
28647;PMS5003;17137;51.494;-0.262;2023-09-19T01:50:59;28;27;
28647;PMS5003;17137;51.494;-0.262;2023-09-19T01:51:33;28;26;
28647;PMS5003;17137;51.494;-0.262;2023-09-19T01:52:09;28;26;
28647;PMS5003;17137;51.494;-0.262;2023-09-19T01:52:45;28;26;
28647;PMS5003;17137;51.494;-0.262;2023-09-19T01:53:22;28;26;
28647;PMS5003;17137;51.494;-0.262;2023-09-19T01:53:58;28;26;
28647;PMS5003;17137;51.494;-0.262;2023-09-19T01:54:33;28;26;
28647;PMS5003;17137;51.494;-0.262;2023-09-19T01:55:11;28;26;
28647;PMS5003;17137;51.494;-0.262;2023-09-19T01:55:47;28;26;
28647;PMS5003;17137;51.494;-0.262;2023-09-19T01:56:21;28;26;
28647;PMS5003;17137;51.494;-0.262;2023-09-19T01:56:59;25;25;
28647;PMS5003;17137;51.494;-0.262;2023-09-19T01:57:34;25;25;
28647;PMS5003;17137;51.494;-0.262;2023-09-19T01:58:13;25;23;
28647;PMS5003;17137;51.494;-0.262;2023-09-19T01:58:48;25;23;
28647;PMS5003;17137;51.494;-0.262;2023-09-19T01:59:21;25;23;
28647;PMS5003;17137;51.494;-0.262;2023-09-19T01:59:59;24;22;
28647;PMS5003;17137;51.494;-0.262;2023-09-19T02:00:32;24;22;
28647;PMS5003;17137;51.494;-0.262;2023-09-19T02:01:07;24;22;
28647;PMS5003;17137;51.494;-0.262;2023-09-19T02:01:40;23;22;
28647;PMS5003;17137;51.494;-0.262;2023-09-19T02:02:14;23;22;
28647;PMS5003;17137;51.494;-0.262;2023-09-19T02:02:47;23;22;
28647;PMS5003;17137;51.494;-0.262;2023-09-19T02:03:18;22;21;
28647;PMS5003;17137;51.494;-0.262;2023-09-19T02:03:50;22;21;
28647;PMS5003;17137;51.494;-0.262;2023-09-19T02:04:22;22;21;
28647;PMS5003;17137;51.494;-0.262;2023-09-19T02:04:53;24;20;
28647;PMS5003;17137;51.494;-0.262;2023-09-19T02:05:25;24;20;
28647;PMS5003;17137;51.494;-0.262;2023-09-19T02:05:55;24;20;
28647;PMS5003;17137;51.494;-0.262;2023-09-19T02:06:26;25;22;
28647;PMS5003;17137;51.494;-0.262;2023-09-19T02:06:56;25;25;
28647;PMS5003;17137;51.494;-0.262;2023-09-19T02:07:27;25;25;
28647;PMS5003;17137;51.494;-0.262;2023-09-19T02:07:58;25;25;
28647;PMS5003;17137;51.494;-0.262;2023-09-19T02:08:28;26;26;
28647;PMS5003;17137;51.494;-0.262;2023-09-19T02:09:00;26;26;
28647;PMS5003;17137;51.494;-0.262;2023-09-19T02:09:31;26;26;
28647;PMS5003;17137;51.494;-0.262;2023-09-19T02:10:01;28;26;
28647;PMS5003;17137;51.494;-0.262;2023-09-19T02:10:32;28;26;
28647;PMS5003;17137;51.494;-0.262;2023-09-19T02:11:02;28;26;
28647;PMS5003;17137;51.494;-0.262;2023-09-19T02:11:32;26;25;
28647;PMS5003;17137;51.494;-0.262;2023-09-19T02:12:03;26;25;
28647;PMS5003;17137;51.494;-0.262;2023-09-19T02:12:33;26;25;
28647;PMS5003;17137;51.494;-0.262;2023-09-19T02:13:04;27;25;
28647;PMS5003;17137;51.494;-0.262;2023-09-19T02:13:34;28;26;
28647;PMS5003;17137;51.494;-0.262;2023-09-19T02:14:04;28;26;
28647;PMS5003;17137;51.494;-0.262;2023-09-19T02:14:35;28;26;
28647;PMS5003;17137;51.494;-0.262;2023-09-19T02:15:05;29;27;
28647;PMS5003;17137;51.494;-0.262;2023-09-19T02:15:36;30;29;
28647;PMS5003;17137;51.494;-0.262;2023-09-19T02:16:07;28;28;
28647;PMS5003;17137;51.494;-0.262;2023-09-19T02:16:37;30;29;
28647;PMS5003;17137;51.494;-0.262;2023-09-19T02:17:07;31;30;
28647;PMS5003;17137;51.494;-0.262;2023-09-19T02:17:37;33;31;
28647;PMS5003;17137;51.494;-0.262;2023-09-19T02:18:08;34;31;
28647;PMS5003;17137;51.494;-0.262;2023-09-19T02:18:38;31;28;
28647;PMS5003;17137;51.494;-0.262;2023-09-19T02:19:09;31;28;
28647;PMS5003;17137;51.494;-0.262;2023-09-19T02:19:39;31;28;
28647;PMS5003;17137;51.494;-0.262;2023-09-19T02:20:10;31;28;
28647;PMS5003;17137;51.494;-0.262;2023-09-19T02:20:41;31;27;
28647;PMS5003;17137;51.494;-0.262;2023-09-19T02:21:12;31;28;
28647;PMS5003;17137;51.494;-0.262;2023-09-19T02:21:42;30;27;
28647;PMS5003;17137;51.494;-0.262;2023-09-19T02:22:12;30;27;
28647;PMS5003;17137;51.494;-0.262;2023-09-19T02:22:42;30;27;
28647;PMS5003;17137;51.494;-0.262;2023-09-19T02:23:13;27;26;
28647;PMS5003;17137;51.494;-0.262;2023-09-19T02:23:44;27;26;
28647;PMS5003;17137;51.494;-0.262;2023-09-19T02:24:14;26;24;
28647;PMS5003;17137;51.494;-0.262;2023-09-19T02:24:45;27;25;
28647;PMS5003;17137;51.494;-0.262;2023-09-19T02:25:15;27;25;
28647;PMS5003;17137;51.494;-0.262;2023-09-19T02:25:51;25;24;
28647;PMS5003;17137;51.494;-0.262;2023-09-19T02:26:22;25;24;
28647;PMS5003;17137;51.494;-0.262;2023-09-19T02:26:52;25;24;
28647;PMS5003;17137;51.494;-0.262;2023-09-19T02:27:22;25;24;
28647;PMS5003;17137;51.494;-0.262;2023-09-19T02:27:52;25;24;
28647;PMS5003;17137;51.494;-0.262;2023-09-19T02:28:23;25;24;
28647;PMS5003;17137;51.494;-0.262;2023-09-19T02:28:53;25;22;
28647;PMS5003;17137;51.494;-0.262;2023-09-19T02:29:23;23;22;
28647;PMS5003;17137;51.494;-0.262;2023-09-19T02:29:54;24;23;
28647;PMS5003;17137;51.494;-0.262;2023-09-19T02:30:24;25;23;
28647;PMS5003;17137;51.494;-0.262;2023-09-19T02:30:54;26;24;
28647;PMS5003;17137;51.494;-0.262;2023-09-19T02:31:25;27;25;
28647;PMS5003;17137;51.494;-0.262;2023-09-19T02:31:55;27;24;
28647;PMS5003;17137;51.494;-0.262;2023-09-19T02:32:25;27;24;
28647;PMS5003;17137;51.494;-0.262;2023-09-19T02:32:56;27;24;
28647;PMS5003;17137;51.494;-0.262;2023-09-19T02:33:26;27;25;
28647;PMS5003;17137;51.494;-0.262;2023-09-19T02:33:56;27;25;
28647;PMS5003;17137;51.494;-0.262;2023-09-19T02:34:26;27;25;
28647;PMS5003;17137;51.494;-0.262;2023-09-19T02:34:57;27;24;
28647;PMS5003;17137;51.494;-0.262;2023-09-19T02:35:27;27;24;
28647;PMS5003;17137;51.494;-0.262;2023-09-19T02:35:58;27;24;
28647;PMS5003;17137;51.494;-0.262;2023-09-19T02:36:28;25;24;
28647;PMS5003;17137;51.494;-0.262;2023-09-19T02:36:59;25;24;
28647;PMS5003;17137;51.494;-0.262;2023-09-19T02:37:29;25;24;
28647;PMS5003;17137;51.494;-0.262;2023-09-19T02:38:00;25;25;
28647;PMS5003;17137;51.494;-0.262;2023-09-19T02:38:30;25;25;
28647;PMS5003;17137;51.494;-0.262;2023-09-19T02:39:00;25;25;
28647;PMS5003;17137;51.494;-0.262;2023-09-19T02:39:31;27;25;
28647;PMS5003;17137;51.494;-0.262;2023-09-19T02:40:01;27;26;
28647;PMS5003;17137;51.494;-0.262;2023-09-19T02:40:32;27;26;
28647;PMS5003;17137;51.494;-0.262;2023-09-19T02:41:02;27;26;
28647;PMS5003;17137;51.494;-0.262;2023-09-19T02:41:32;29;26;
28647;PMS5003;17137;51.494;-0.262;2023-09-19T02:42:03;29;26;
28647;PMS5003;17137;51.494;-0.262;2023-09-19T02:42:33;29;26;
28647;PMS5003;17137;51.494;-0.262;2023-09-19T02:43:03;28;26;
28647;PMS5003;17137;51.494;-0.262;2023-09-19T02:43:34;28;26;
28647;PMS5003;17137;51.494;-0.262;2023-09-19T02:44:04;28;26;
28647;PMS5003;17137;51.494;-0.262;2023-09-19T02:44:34;28;25;
28647;PMS5003;17137;51.494;-0.262;2023-09-19T02:45:05;28;25;
28647;PMS5003;17137;51.494;-0.262;2023-09-19T02:45:36;28;25;
28647;PMS5003;17137;51.494;-0.262;2023-09-19T02:46:07;26;25;
28647;PMS5003;17137;51.494;-0.262;2023-09-19T02:46:37;26;25;
28647;PMS5003;17137;51.494;-0.262;2023-09-19T02:47:07;26;25;
28647;PMS5003;17137;51.494;-0.262;2023-09-19T02:47:38;27;25;
28647;PMS5003;17137;51.494;-0.262;2023-09-19T02:48:10;27;25;
28647;PMS5003;17137;51.494;-0.262;2023-09-19T02:48:40;27;25;
28647;PMS5003;17137;51.494;-0.262;2023-09-19T02:49:10;27;26;
28647;PMS5003;17137;51.494;-0.262;2023-09-19T02:49:40;27;26;
28647;PMS5003;17137;51.494;-0.262;2023-09-19T02:50:11;27;26;
28647;PMS5003;17137;51.494;-0.262;2023-09-19T02:50:42;27;25;
28647;PMS5003;17137;51.494;-0.262;2023-09-19T02:51:12;25;25;
28647;PMS5003;17137;51.494;-0.262;2023-09-19T02:51:42;25;24;
28647;PMS5003;17137;51.494;-0.262;2023-09-19T02:52:13;25;24;
28647;PMS5003;17137;51.494;-0.262;2023-09-19T02:52:43;24;24;
28647;PMS5003;17137;51.494;-0.262;2023-09-19T02:53:15;25;25;
28647;PMS5003;17137;51.494;-0.262;2023-09-19T02:53:45;24;24;
28647;PMS5003;17137;51.494;-0.262;2023-09-19T02:54:15;25;25;
28647;PMS5003;17137;51.494;-0.262;2023-09-19T02:54:46;25;25;
28647;PMS5003;17137;51.494;-0.262;2023-09-19T02:55:16;25;25;
28647;PMS5003;17137;51.494;-0.262;2023-09-19T02:55:47;27;27;
28647;PMS5003;17137;51.494;-0.262;2023-09-19T02:56:18;30;28;
28647;PMS5003;17137;51.494;-0.262;2023-09-19T02:56:48;29;28;
28647;PMS5003;17137;51.494;-0.262;2023-09-19T02:57:18;30;28;
28647;PMS5003;17137;51.494;-0.262;2023-09-19T02:57:49;30;29;
28647;PMS5003;17137;51.494;-0.262;2023-09-19T02:58:20;31;29;
28647;PMS5003;17137;51.494;-0.262;2023-09-19T02:58:50;31;29;
28647;PMS5003;17137;51.494;-0.262;2023-09-19T02:59:21;31;29;
28647;PMS5003;17137;51.494;-0.262;2023-09-19T02:59:51;30;29;
28647;PMS5003;17137;51.494;-0.262;2023-09-19T03:00:22;30;29;
28647;PMS5003;17137;51.494;-0.262;2023-09-19T03:00:53;30;29;
28647;PMS5003;17137;51.494;-0.262;2023-09-19T03:01:23;29;27;
28647;PMS5003;17137;51.494;-0.262;2023-09-19T03:01:53;29;27;
28647;PMS5003;17137;51.494;-0.262;2023-09-19T03:02:24;29;27;
28647;PMS5003;17137;51.494;-0.262;2023-09-19T03:02:54;28;27;
28647;PMS5003;17137;51.494;-0.262;2023-09-19T03:03:25;29;28;
28647;PMS5003;17137;51.494;-0.262;2023-09-19T03:03:56;30;27;
28647;PMS5003;17137;51.494;-0.262;2023-09-19T03:04:26;29;26;
28647;PMS5003;17137;51.494;-0.262;2023-09-19T03:04:56;30;26;
28647;PMS5003;17137;51.494;-0.262;2023-09-19T03:05:26;30;26;
28647;PMS5003;17137;51.494;-0.262;2023-09-19T03:05:57;30;26;
28647;PMS5003;17137;51.494;-0.262;2023-09-19T03:06:27;30;27;
28647;PMS5003;17137;51.494;-0.262;2023-09-19T03:06:57;30;27;
28647;PMS5003;17137;51.494;-0.262;2023-09-19T03:07:28;30;27;
28647;PMS5003;17137;51.494;-0.262;2023-09-19T03:07:58;29;26;
28647;PMS5003;17137;51.494;-0.262;2023-09-19T03:08:28;29;26;
28647;PMS5003;17137;51.494;-0.262;2023-09-19T03:08:59;29;26;
28647;PMS5003;17137;51.494;-0.262;2023-09-19T03:09:29;28;26;
28647;PMS5003;17137;51.494;-0.262;2023-09-19T03:09:59;28;26;
28647;PMS5003;17137;51.494;-0.262;2023-09-19T03:10:30;28;26;
28647;PMS5003;17137;51.494;-0.262;2023-09-19T03:11:00;27;27;
28647;PMS5003;17137;51.494;-0.262;2023-09-19T03:11:30;26;26;
28647;PMS5003;17137;51.494;-0.262;2023-09-19T03:12:01;30;30;
28647;PMS5003;17137;51.494;-0.262;2023-09-19T03:12:31;30;30;
28647;PMS5003;17137;51.494;-0.262;2023-09-19T03:13:01;30;30;
28647;PMS5003;17137;51.494;-0.262;2023-09-19T03:13:32;29;29;
28647;PMS5003;17137;51.494;-0.262;2023-09-19T03:14:02;29;29;
28647;PMS5003;17137;51.494;-0.262;2023-09-19T03:14:33;29;29;
28647;PMS5003;17137;51.494;-0.262;2023-09-19T03:15:03;27;27;
28647;PMS5003;17137;51.494;-0.262;2023-09-19T03:15:34;27;27;
28647;PMS5003;17137;51.494;-0.262;2023-09-19T03:16:04;27;27;
28647;PMS5003;17137;51.494;-0.262;2023-09-19T03:16:35;26;26;
28647;PMS5003;17137;51.494;-0.262;2023-09-19T03:17:05;26;26;
28647;PMS5003;17137;51.494;-0.262;2023-09-19T03:17:35;26;26;
28647;PMS5003;17137;51.494;-0.262;2023-09-19T03:18:06;26;26;
28647;PMS5003;17137;51.494;-0.262;2023-09-19T03:18:36;26;26;
28647;PMS5003;17137;51.494;-0.262;2023-09-19T03:19:06;26;26;
28647;PMS5003;17137;51.494;-0.262;2023-09-19T03:19:37;26;26;
28647;PMS5003;17137;51.494;-0.262;2023-09-19T03:20:07;35;32;
28647;PMS5003;17137;51.494;-0.262;2023-09-19T03:20:38;35;34;
28647;PMS5003;17137;51.494;-0.262;2023-09-19T03:21:08;34;33;
28647;PMS5003;17137;51.494;-0.262;2023-09-19T03:21:39;37;35;
28647;PMS5003;17137;51.494;-0.262;2023-09-19T03:22:10;39;37;
28647;PMS5003;17137;51.494;-0.262;2023-09-19T03:22:40;39;37;
28647;PMS5003;17137;51.494;-0.262;2023-09-19T03:23:10;38;36;
28647;PMS5003;17137;51.494;-0.262;2023-09-19T03:23:41;37;35;
28647;PMS5003;17137;51.494;-0.262;2023-09-19T03:24:11;36;34;
28647;PMS5003;17137;51.494;-0.262;2023-09-19T03:24:41;36;35;
28647;PMS5003;17137;51.494;-0.262;2023-09-19T03:25:11;36;35;
28647;PMS5003;17137;51.494;-0.262;2023-09-19T03:25:42;37;36;
28647;PMS5003;17137;51.494;-0.262;2023-09-19T03:26:17;36;35;
28647;PMS5003;17137;51.494;-0.262;2023-09-19T03:26:47;35;35;
28647;PMS5003;17137;51.494;-0.262;2023-09-19T03:27:17;35;35;
28647;PMS5003;17137;51.494;-0.262;2023-09-19T03:27:48;35;33;
28647;PMS5003;17137;51.494;-0.262;2023-09-19T03:28:18;25;25;
28647;PMS5003;17137;51.494;-0.262;2023-09-19T03:28:48;25;25;
28647;PMS5003;17137;51.494;-0.262;2023-09-19T03:29:19;26;26;
28647;PMS5003;17137;51.494;-0.262;2023-09-19T03:29:49;27;27;
28647;PMS5003;17137;51.494;-0.262;2023-09-19T03:30:19;27;27;